Statia Express — V7TT3 — position and weather

sailwx.info

Track history (hours):
 
Tides and Currents Weather Stations Pressure Air Temp Water Temp Dewpoint Dewpoint Depression Visibility Wind Speed Wind Dir Waves Ship Positions

Statia Express

Last reported at 2016-Jun-15 20:33 UTC. Time now 2016-Jun-26 11:59 UTC.
Position N 17°42' W 063°03'.
Warning: this ship's position is 10 days out of date.

Length 28 m; draft 4.1 m.

Type: Tug. MMSI: 538003879.

Date/timePositionNaut miles runAvg speedWind from/ knotsBaromVisibWave heightAir tempDewpointWater temp
2016-Jun-15 20:33N 17°42' W 063°03'6 6.3
2016-Jun-15 19:33N 17°49' W 063°04'6 6.2
2016-Jun-15 18:32N 17°55' W 063°04'5 5.4
2016-Jun-15 17:33N 18°00' W 063°04'1 0.0
2016-Jun-14 21:22N 18°01' W 063°03'0 0.0
2016-Jun-14 03:03N 18°00' W 063°03'0 0.0
2016-Jun-13 02:29N 18°00' W 063°03'0 0.3
2016-Jun-13 01:27N 18°00' W 063°03'0 0.0
2016-Jun-13 00:28N 18°00' W 063°03'0 0.0
2016-Jun-12 20:31N 18°00' W 063°03'0 0.0
2016-Jun-12 19:28N 18°00' W 063°03'0 0.0
2016-Jun-12 17:24N 18°00' W 063°03'0 0.0
2016-Jun-12 16:24N 18°00' W 063°03'0 0.0
2016-Jun-12 15:31N 18°01' W 063°03'0 0.0
2016-Jun-12 14:14N 18°01' W 063°03'0 0.0
2016-Jun-12 13:30N 18°00' W 063°03'0 0.0
2016-Jun-12 12:33N 18°01' W 063°03'0 0.0
2016-Jun-12 11:33N 18°00' W 063°03'1 0.1
2016-Jun-12 01:26N 18°01' W 063°03'3 3.0
2016-Jun-12 00:33N 17°59' W 063°05'5 5.4
2016-Jun-11 23:33N 17°53' W 063°04'  
2016-Jun-09 01:18N 17°43' W 063°04'4 5.8
2016-Jun-09 00:33N 17°48' W 063°04'6 5.8
2016-Jun-08 23:33N 17°54' W 063°04'5 4.8
2016-Jun-08 22:25N 17°59' W 063°05'2 2.1
2016-Jun-08 21:20N 18°01' W 063°03'1 0.1
2016-Jun-08 16:32N 18°00' W 063°03'0 0.1
2016-Jun-08 15:32N 18°01' W 063°03'0 0.0
2016-Jun-08 14:26N 18°01' W 063°03'0 0.1
2016-Jun-08 13:33N 18°00' W 063°03'0 0.3
2016-Jun-08 12:14N 18°01' W 063°03'0 0.4
2016-Jun-08 11:17N 18°01' W 063°03'1 0.1
2016-Jun-08 03:29N 18°01' W 063°03'2 2.5
2016-Jun-08 02:31N 17°59' W 063°05'4 4.3
2016-Jun-08 01:31N 17°55' W 063°05'5 5.2
2016-Jun-08 00:30N 17°49' W 063°04'  
Track history (hours):
 
Tides and Currents Weather Stations Pressure Air Temp Water Temp Dewpoint Dewpoint Depression Visibility Wind Speed Wind Dir Waves Ship Positions

Statia Express

Last reported at 2016-Jun-15 20:33 UTC. Time now 2016-Jun-26 11:59 UTC.
Position N 17°42' W 063°03'.
Warning: this ship's position is 10 days out of date.

Length 28 m; draft 4.1 m.

Type: Tug. MMSI: 538003879.

Date/timePositionNaut miles runAvg speedWind from/ knotsBaromVisibWave heightAir tempDewpointWater temp
2016-Jun-15 20:33N 17°42' W 063°03'6 6.3
2016-Jun-15 19:33N 17°49' W 063°04'6 6.2
2016-Jun-15 18:32N 17°55' W 063°04'5 5.4
2016-Jun-15 17:33N 18°00' W 063°04'1 0.0
2016-Jun-14 21:22N 18°01' W 063°03'0 0.0
2016-Jun-14 03:03N 18°00' W 063°03'0 0.0
2016-Jun-13 02:29N 18°00' W 063°03'0 0.3
2016-Jun-13 01:27N 18°00' W 063°03'0 0.0
2016-Jun-13 00:28N 18°00' W 063°03'0 0.0
2016-Jun-12 20:31N 18°00' W 063°03'0 0.0
2016-Jun-12 19:28N 18°00' W 063°03'0 0.0
2016-Jun-12 17:24N 18°00' W 063°03'0 0.0
2016-Jun-12 16:24N 18°00' W 063°03'0 0.0
2016-Jun-12 15:31N 18°01' W 063°03'0 0.0
2016-Jun-12 14:14N 18°01' W 063°03'0 0.0
2016-Jun-12 13:30N 18°00' W 063°03'0 0.0
2016-Jun-12 12:33N 18°01' W 063°03'0 0.0
2016-Jun-12 11:33N 18°00' W 063°03'1 0.1
2016-Jun-12 01:26N 18°01' W 063°03'3 3.0
2016-Jun-12 00:33N 17°59' W 063°05'5 5.4
2016-Jun-11 23:33N 17°53' W 063°04'  
2016-Jun-09 01:18N 17°43' W 063°04'4 5.8
2016-Jun-09 00:33N 17°48' W 063°04'6 5.8
2016-Jun-08 23:33N 17°54' W 063°04'5 4.8
2016-Jun-08 22:25N 17°59' W 063°05'2 2.1
2016-Jun-08 21:20N 18°01' W 063°03'1 0.1
2016-Jun-08 16:32N 18°00' W 063°03'0 0.1
2016-Jun-08 15:32N 18°01' W 063°03'0 0.0
2016-Jun-08 14:26N 18°01' W 063°03'0 0.1
2016-Jun-08 13:33N 18°00' W 063°03'0 0.3
2016-Jun-08 12:14N 18°01' W 063°03'0 0.4
2016-Jun-08 11:17N 18°01' W 063°03'1 0.1
2016-Jun-08 03:29N 18°01' W 063°03'2 2.5
2016-Jun-08 02:31N 17°59' W 063°05'4 4.3
2016-Jun-08 01:31N 17°55' W 063°05'5 5.2
2016-Jun-08 00:30N 17°49' W 063°04'  

Dump ship's entire track history